Time,TemperatureF,DewpointF,PressureIn,WindDirection,WindDirectionDegrees,WindSpeedMPH,WindSpeedGustMPH,Humidity,HourlyPrecipIn,Conditions,Clouds,dailyrainin,SolarRadiationWatts/m^2,SoftwareType,DateUTC
2013-07-27 00:43:00,72.0,25.0,-100.00,East,91,0.0,5.0,17,0.00,,,0.00,0.000000,,2013-07-27 06:43:00,
2013-07-27 00:52:00,72.0,25.0,-100.00,East,91,0.0,5.0,17,0.00,,,0.00,0.000000,,2013-07-27 06:52:00,
2013-07-27 01:22:00,72.0,26.0,-100.00,SE,132,0.0,4.0,18,0.00,,,0.00,0.000000,,2013-07-27 07:22:00,
2013-07-27 01:33:00,72.0,26.0,-100.00,SE,132,0.0,4.0,18,0.00,,,0.00,0.000000,,2013-07-27 07:33:00,
2013-07-27 01:43:00,72.0,26.0,-100.00,SE,132,0.0,4.0,18,0.00,,,0.00,0.000000,,2013-07-27 07:43:00,
2013-07-27 01:52:00,72.0,26.0,-100.00,SE,132,0.0,4.0,18,0.00,,,0.00,0.000000,,2013-07-27 07:52:00,
2013-07-27 02:32:00,70.0,26.0,-100.00,North,350,0.0,3.0,19,0.00,,,0.00,0.000000,,2013-07-27 08:32:00,
2013-07-27 02:43:00,70.0,26.0,-100.00,North,350,0.0,3.0,19,0.00,,,0.00,0.000000,,2013-07-27 08:43:00,
2013-07-27 02:53:00,70.0,26.0,-100.00,North,350,0.0,3.0,19,0.00,,,0.00,0.000000,,2013-07-27 08:53:00,
2013-07-27 03:44:00,70.0,26.0,-100.00,NE,46,0.0,3.0,19,0.00,,,0.00,0.000000,,2013-07-27 09:44:00,
2013-07-27 03:52:00,70.0,26.0,-100.00,NE,46,0.0,3.0,19,0.00,,,0.00,0.000000,,2013-07-27 09:52:00,
2013-07-27 04:22:00,68.0,25.0,-100.00,ENE,74,0.0,0.0,20,-99.99,,,0.00,0.000000,,2013-07-27 10:22:00,
2013-07-27 04:32:00,68.0,25.0,-100.00,ENE,74,0.0,0.0,20,-99.99,,,0.00,0.000000,,2013-07-27 10:32:00,
2013-07-27 04:43:00,68.0,25.0,-100.00,ENE,74,0.0,0.0,20,-99.99,,,0.00,0.000000,,2013-07-27 10:43:00,
2013-07-27 04:52:00,68.0,25.0,-100.00,ENE,74,0.0,0.0,20,-99.99,,,0.00,0.000000,,2013-07-27 10:52:00,
2013-07-27 05:22:00,69.0,29.0,-100.00,North,355,0.0,0.0,22,-99.99,,,0.00,0.000000,,2013-07-27 11:22:00,
2013-07-27 05:32:00,69.0,29.0,-100.00,North,355,0.0,0.0,22,-99.99,,,0.00,0.000000,,2013-07-27 11:32:00,
2013-07-27 05:43:00,69.0,29.0,-100.00,North,355,0.0,0.0,22,-99.99,,,0.00,0.000000,,2013-07-27 11:43:00,
2013-07-27 05:52:00,69.0,29.0,-100.00,North,355,0.0,0.0,22,-99.99,,,0.00,0.000000,,2013-07-27 11:52:00,
2013-07-27 06:22:00,68.0,30.0,-100.00,NNW,333,0.0,5.0,24,-99.99,,,0.00,0.000000,,2013-07-27 12:22:00,
2013-07-27 06:33:00,68.0,30.0,-100.00,NNW,333,0.0,5.0,24,-99.99,,,0.00,0.000000,,2013-07-27 12:33:00,
2013-07-27 06:43:00,68.0,30.0,-100.00,NNW,333,0.0,5.0,24,-99.99,,,0.00,0.000000,,2013-07-27 12:43:00,
2013-07-27 06:52:00,68.0,30.0,-100.00,NNW,333,0.0,5.0,24,-99.99,,,0.00,0.000000,,2013-07-27 12:52:00,
2013-07-27 07:44:00,67.0,27.0,-100.00,SSE,168,0.0,4.0,22,0.00,,,0.00,11.000000,,2013-07-27 13:44:00,
2013-07-27 07:53:00,67.0,27.0,-100.00,SSE,168,0.0,4.0,22,0.00,,,0.00,11.000000,,2013-07-27 13:53:00,
2013-07-27 08:44:00,67.0,27.0,-100.00,SE,129,0.0,4.0,22,-99.99,,,0.00,45.000000,,2013-07-27 14:44:00,
2013-07-27 08:54:00,67.0,27.0,-100.00,SE,129,0.0,4.0,22,-99.99,,,0.00,45.000000,,2013-07-27 14:54:00,
2013-07-27 10:43:00,75.0,29.0,-100.00,NW,317,2.0,4.0,18,0.00,,,0.00,595.000000,,2013-07-27 16:43:00,
2013-07-27 10:53:00,75.0,29.0,-100.00,NW,317,2.0,4.0,18,0.00,,,0.00,595.000000,,2013-07-27 16:53:00,
2013-07-27 11:43:00,75.0,23.0,-100.00,East,89,4.0,7.0,14,0.00,,,0.00,812.000000,,2013-07-27 17:43:00,
2013-07-27 11:53:00,75.0,23.0,-100.00,East,89,4.0,7.0,14,0.00,,,0.00,812.000000,,2013-07-27 17:53:00,
2013-07-27 12:42:00,75.0,24.0,-100.00,NW,309,2.0,13.0,15,0.00,,,0.00,521.000000,,2013-07-27 18:42:00,
2013-07-27 12:52:00,75.0,24.0,-100.00,NW,309,2.0,13.0,15,0.00,,,0.00,521.000000,,2013-07-27 18:52:00,
2013-07-27 13:32:00,79.0,26.0,-100.00,West,263,4.0,10.0,14,0.00,,,0.00,591.000000,,2013-07-27 19:32:00,
2013-07-27 13:43:00,79.0,26.0,-100.00,West,263,4.0,10.0,14,0.00,,,0.00,591.000000,,2013-07-27 19:43:00,
2013-07-27 13:52:00,79.0,26.0,-100.00,West,263,4.0,10.0,14,0.00,,,0.00,591.000000,,2013-07-27 19:52:00,
2013-07-27 14:32:00,81.0,24.0,-100.00,WNW,290,4.0,12.0,12,0.00,,,0.00,784.000000,,2013-07-27 20:32:00,
2013-07-27 14:42:00,81.0,24.0,-100.00,WNW,290,4.0,12.0,12,0.00,,,0.00,784.000000,,2013-07-27 20:42:00,
2013-07-27 14:52:00,81.0,24.0,-100.00,WNW,290,4.0,12.0,12,0.00,,,0.00,784.000000,,2013-07-27 20:52:00,
2013-07-27 15:22:00,83.0,21.0,-100.00,South,179,5.0,13.0,10,0.00,,,0.00,1237.000000,,2013-07-27 21:22:00,
2013-07-27 15:33:00,83.0,21.0,-100.00,South,179,5.0,13.0,10,0.00,,,0.00,1237.000000,,2013-07-27 21:33:00,
2013-07-27 15:42:00,83.0,21.0,-100.00,South,179,5.0,13.0,10,0.00,,,0.00,1237.000000,,2013-07-27 21:42:00,
2013-07-27 15:52:00,83.0,21.0,-100.00,South,179,5.0,13.0,10,0.00,,,0.00,1237.000000,,2013-07-27 21:52:00,
2013-07-27 16:22:00,84.0,22.0,-100.00,NW,316,6.0,20.0,10,0.00,,,0.00,1105.000000,,2013-07-27 22:22:00,
2013-07-27 16:32:00,84.0,22.0,-100.00,NW,316,6.0,20.0,10,0.00,,,0.00,1105.000000,,2013-07-27 22:32:00,
2013-07-27 16:43:00,84.0,22.0,-100.00,NW,316,6.0,20.0,10,0.00,,,0.00,1105.000000,,2013-07-27 22:43:00,
2013-07-27 16:53:00,84.0,22.0,-100.00,NW,316,6.0,20.0,10,0.00,,,0.00,1105.000000,,2013-07-27 22:53:00,
2013-07-27 17:22:00,84.0,24.0,-100.00,WNW,302,5.0,14.0,11,0.00,,,0.00,939.000000,,2013-07-27 23:22:00,
2013-07-27 17:32:00,84.0,24.0,-100.00,WNW,302,5.0,14.0,11,0.00,,,0.00,939.000000,,2013-07-27 23:32:00,
2013-07-27 17:44:00,84.0,24.0,-100.00,WNW,302,5.0,14.0,11,0.00,,,0.00,939.000000,,2013-07-27 23:44:00,
2013-07-27 17:52:00,84.0,24.0,-100.00,WNW,302,5.0,14.0,11,0.00,,,0.00,939.000000,,2013-07-27 23:52:00,
2013-07-27 18:22:00,83.0,25.0,-100.00,NW,307,6.0,14.0,12,0.00,,,0.00,732.000000,,2013-07-28 00:22:00,
2013-07-27 18:32:00,83.0,25.0,-100.00,NW,307,6.0,14.0,12,0.00,,,0.00,732.000000,,2013-07-28 00:32:00,
2013-07-27 18:44:00,83.0,25.0,-100.00,NW,307,6.0,14.0,12,0.00,,,0.00,732.000000,,2013-07-28 00:44:00,
2013-07-27 18:53:00,83.0,25.0,-100.00,NW,307,6.0,14.0,12,0.00,,,0.00,732.000000,,2013-07-28 00:53:00,
2013-07-27 19:22:00,80.0,25.0,-100.00,WNW,298,4.0,16.0,13,0.00,,,0.00,492.000000,,2013-07-28 01:22:00,
2013-07-27 19:32:00,80.0,25.0,-100.00,WNW,298,4.0,16.0,13,0.00,,,0.00,492.000000,,2013-07-28 01:32:00,
2013-07-27 19:43:00,80.0,25.0,-100.00,WNW,298,4.0,16.0,13,0.00,,,0.00,492.000000,,2013-07-28 01:43:00,
2013-07-27 19:53:00,80.0,25.0,-100.00,WNW,298,4.0,16.0,13,0.00,,,0.00,492.000000,,2013-07-28 01:53:00,
2013-07-27 20:22:00,73.0,24.0,-100.00,NW,309,0.0,14.0,16,0.00,,,0.00,182.000000,,2013-07-28 02:22:00,
2013-07-27 20:32:00,73.0,24.0,-100.00,NW,309,0.0,14.0,16,0.00,,,0.00,182.000000,,2013-07-28 02:32:00,
2013-07-27 20:42:00,73.0,24.0,-100.00,NW,309,0.0,14.0,16,0.00,,,0.00,182.000000,,2013-07-28 02:42:00,
2013-07-27 20:53:00,73.0,24.0,-100.00,NW,309,0.0,14.0,16,0.00,,,0.00,182.000000,,2013-07-28 02:53:00,
2013-07-27 21:32:00,70.0,28.0,-100.00,SW,222,0.0,7.0,21,0.00,,,0.00,50.000000,,2013-07-28 03:32:00,
2013-07-27 21:42:00,70.0,28.0,-100.00,SW,222,0.0,7.0,21,0.00,,,0.00,50.000000,,2013-07-28 03:42:00,
2013-07-27 21:52:00,70.0,28.0,-100.00,SW,222,0.0,7.0,21,0.00,,,0.00,50.000000,,2013-07-28 03:52:00,
2013-07-27 22:43:00,68.0,31.0,-100.00,NE,55,0.0,4.0,25,0.00,,,0.00,4.000000,,2013-07-28 04:43:00,
2013-07-27 22:53:00,68.0,31.0,-100.00,NE,55,0.0,4.0,25,0.00,,,0.00,4.000000,,2013-07-28 04:53:00,
2013-07-27 23:22:00,64.0,26.0,-100.00,ESE,110,3.0,3.0,24,0.00,,,0.00,0.000000,,2013-07-28 05:22:00,
2013-07-27 23:32:00,64.0,26.0,-100.00,ESE,110,3.0,3.0,24,0.00,,,0.00,0.000000,,2013-07-28 05:32:00,
2013-07-27 23:43:00,64.0,26.0,-100.00,ESE,110,3.0,3.0,24,0.00,,,0.00,0.000000,,2013-07-28 05:43:00,
2013-07-27 23:52:00,64.0,26.0,-100.00,ESE,110,3.0,3.0,24,0.00,,,0.00,0.000000,,2013-07-28 05:52:00,